WetterOnline ( https://www.wetteronline.de )

Wetter aktuell Büsum

Aktuelles Wetter: Heide/Elpersbüttel (5m)

6-stündlich | Neueste Meldungen
Ortszeit Temperatur Wetter
Sa, 15.08. 20:00 26.2° C leicht bewölkt
Sa, 15.08. 14:00 28.7° C leicht bewölkt
Sa, 15.08. 8:00 16.9° C fast wolkenlos
Sa, 15.08. 2:00 17.5° C leicht bewölkt
Fr, 14.08. 20:00 25.3° C leicht bewölkt
Fr, 14.08. 14:00 25.8° C leicht bewölkt
Fr, 14.08. 8:00 18.1° C wolkig
Fr, 14.08. 2:00 17.2° C wolkig
Ortszeit Temperatur Wetter
Sa, 15.08. 22:30 20.7° C wolkenlos
Sa, 15.08. 22:20 20.7° C wolkenlos
Sa, 15.08. 22:10 21.1° C fast wolkenlos
Sa, 15.08. 22:00 21.0° C leicht bewölkt
Sa, 15.08. 21:50 21.0° C leicht bewölkt
Sa, 15.08. 21:40 21.4° C leicht bewölkt
Sa, 15.08. 21:30 22.0° C fast wolkenlos
Sa, 15.08. 21:00 23.3° C wolkenlos
Sa, 15.08. 20:30 24.6° C wolkenlos
Sa, 15.08. 20:00 26.2° C leicht bewölkt
Sa, 15.08. 19:30 27.2° C wolkig
Sa, 15.08. 19:00 28.0° C bewölkt
Ortszeit Relative Feuchte Sichtweite
Sa, 15.08. 20:00 55% 15 km
Sa, 15.08. 14:00 47% 14 km
Sa, 15.08. 8:00 78% 13 km
Sa, 15.08. 2:00 77% 30 km
Fr, 14.08. 20:00 50% 35 km
Fr, 14.08. 14:00 55% 50 km
Fr, 14.08. 8:00 82% 35 km
Fr, 14.08. 2:00 80% 40 km
Ortszeit Relative Feuchte Sichtweite
Sa, 15.08. 22:30 76% 15 km
Sa, 15.08. 22:20 76% -
Sa, 15.08. 22:10 75% -
Sa, 15.08. 22:00 76% 14 km
Sa, 15.08. 21:50 76% -
Sa, 15.08. 21:40 75% -
Sa, 15.08. 21:30 72% 14 km
Sa, 15.08. 21:00 68% 16 km
Sa, 15.08. 20:30 61% 17 km
Sa, 15.08. 20:00 55% 15 km
Sa, 15.08. 19:30 55% 14 km
Sa, 15.08. 19:00 55% 14 km
Ortszeit Niederschlagsmenge Niederschlagsart
Sa, 15.08. 20:00 0.0 l/m2 in 12 Std. -
Sa, 15.08. 14:00 0.0 l/m2 in 6 Std. -
Sa, 15.08. 8:00 0.0 l/m2 in 12 Std. -
Sa, 15.08. 2:00 0.0 l/m2 in 6 Std. -
Fr, 14.08. 20:00 0.0 l/m2 in 12 Std. -
Fr, 14.08. 14:00 0.0 l/m2 in 6 Std. -
Fr, 14.08. 8:00 0.0 l/m2 in 12 Std. -
Fr, 14.08. 2:00 0.0 l/m2 in 6 Std. -
Ortszeit Niederschlagsmenge Niederschlagsart
Sa, 15.08. 22:30 0.0 l/m2 in 1 Std. -
Sa, 15.08. 22:20 keine Meldung -
Sa, 15.08. 22:10 keine Meldung -
Sa, 15.08. 22:00 0.0 l/m2 in 1 Std. -
Sa, 15.08. 21:50 keine Meldung -
Sa, 15.08. 21:40 keine Meldung -
Sa, 15.08. 21:30 0.0 l/m2 in 1 Std. -
Sa, 15.08. 21:00 0.0 l/m2 in 1 Std. -
Sa, 15.08. 20:30 0.0 l/m2 in 1 Std. -
Sa, 15.08. 20:00 0.0 l/m2 in 1 Std. -
Sa, 15.08. 19:30 0.0 l/m2 in 1 Std. -
Sa, 15.08. 19:00 0.0 l/m2 in 1 Std. -
Ortszeit Stärke Spitze Richtung
km/h Bft. km/h Grad Sektor
Sa, 15.08. 20:00 4 1 22 80° O
Sa, 15.08. 14:00 11 2 24 90° O
Sa, 15.08. 8:00 11 2 18 40° NO
Sa, 15.08. 2:00 7 2 18 50° NO
Fr, 14.08. 20:00 13 3 30 50° NO
Fr, 14.08. 14:00 17 3 24 40° NO
Fr, 14.08. 8:00 11 2 22 60° NO
Fr, 14.08. 2:00 11 2 25 60° NO
Ortszeit Stärke Spitze Richtung
km/h Bft. km/h Grad Sektor
Sa, 15.08. 22:30 6 1 13 70° O
Sa, 15.08. 22:20 6 1 - 70° O
Sa, 15.08. 22:10 4 1 - 60° NO
Sa, 15.08. 22:00 9 2 13 30° NO
Sa, 15.08. 21:50 9 2 - 30° NO
Sa, 15.08. 21:40 9 2 - 360° N
Sa, 15.08. 21:30 11 2 14 10° N
Sa, 15.08. 21:00 4 1 11 20° N
Sa, 15.08. 20:30 4 1 11 40° NO
Sa, 15.08. 20:00 4 1 22 80° O
Sa, 15.08. 19:30 15 3 20 50° NO
Sa, 15.08. 19:00 13 3 22 60° NO
Ortszeit Untergrenze Bedeckung Gattung
total tief tief mittel hoch
Sa, 15.08. 20:00 1800 m 3/8 3/8 - - -
Sa, 15.08. 14:00 1380 m 3/8 3/8 - - -
Sa, 15.08. 8:00 2400 m 1/8 1/8 - - -
Sa, 15.08. 2:00 8700 m 3/8 0/8 - - -
Fr, 14.08. 20:00 10500 m 3/8 0/8 - - -
Fr, 14.08. 14:00 8400 m 8/8 0/8 - - -
Fr, 14.08. 8:00 7800 m 8/8 0/8 - - -
Fr, 14.08. 2:00 9000 m 8/8 0/8 - - -
Ortszeit Bedeckungsgrad in Achtel und Wolkenuntergrenze
Sa, 15.08. 22:30 keine Wolken
Sa, 15.08. 22:20 keine Wolken
Sa, 15.08. 22:10 1(3000m)
Sa, 15.08. 22:00 4(3000m)
Sa, 15.08. 21:50 4(3000m)
Sa, 15.08. 21:40 4(3000m)
Sa, 15.08. 21:30 1(3000m)
Sa, 15.08. 21:00 keine Wolken
Sa, 15.08. 20:30 keine Wolken
Sa, 15.08. 20:00 3(1800m) 3(3000m)
Sa, 15.08. 19:30 2(2100m) 3(2400m) 6(3000m)
Sa, 15.08. 19:00 1(1500m) 5(2100m) 7(2400m)
Ortszeit Luftdruck NN (hPa) Tendenz (hPa in 3 Std.)
Sa, 15.08. 20:00 1014 + 0,2
Sa, 15.08. 14:00 1015 - 0,3
Sa, 15.08. 8:00 1015 + 0,4
Sa, 15.08. 2:00 1014 + 0,2
Fr, 14.08. 20:00 1013 + 0,8
Fr, 14.08. 14:00 1013 - 0,7
Fr, 14.08. 8:00 1013 + 0,5
Fr, 14.08. 2:00 1014 - 0,4
Ortszeit Luftdruck NN (hPa) Tendenz (hPa in 3 Std.)
Sa, 15.08. 22:30 1015 + 0,9
Sa, 15.08. 22:20 1015 keine Meldung
Sa, 15.08. 22:10 1015 keine Meldung
Sa, 15.08. 22:00 1015 + 1,0
Sa, 15.08. 21:50 1015 keine Meldung
Sa, 15.08. 21:40 1015 keine Meldung
Sa, 15.08. 21:30 1015 + 0,8
Sa, 15.08. 21:00 1014 + 0,5
Sa, 15.08. 20:30 1014 + 0,3
Sa, 15.08. 20:00 1014 + 0,2
Sa, 15.08. 19:30 1014 - 0,2
Sa, 15.08. 19:00 1014 - 0,5
Ortszeit Schneehöhe (cm)
Sa, 15.08. 20:00 -
Sa, 15.08. 14:00 -
Sa, 15.08. 8:00 -
Sa, 15.08. 2:00 -
Fr, 14.08. 20:00 -
Fr, 14.08. 14:00 -
Fr, 14.08. 8:00 -
Fr, 14.08. 2:00 -
Ortszeit Schneehöhe (cm)
Sa, 15.08. 22:30 -
Sa, 15.08. 22:20 -
Sa, 15.08. 22:10 -
Sa, 15.08. 22:00 -
Sa, 15.08. 21:50 -
Sa, 15.08. 21:40 -
Sa, 15.08. 21:30 -
Sa, 15.08. 21:00 -
Sa, 15.08. 20:30 -
Sa, 15.08. 20:00 -
Sa, 15.08. 19:30 -
Sa, 15.08. 19:00 -
Link zu dieser Seite / Seite empfehlen

Das Wetter in ...